sensor_id;sensor_type;location;lat;lon;timestamp;temperature;humidity
19437;DHT22;9854;50.968;4.168;2024-02-26T00:01:01;9.40;99.90
19437;DHT22;9854;50.968;4.168;2024-02-26T00:03:27;9.40;99.90
19437;DHT22;9854;50.968;4.168;2024-02-26T00:05:53;9.30;99.90
19437;DHT22;9854;50.968;4.168;2024-02-26T00:08:19;9.30;99.90
19437;DHT22;9854;50.968;4.168;2024-02-26T00:10:44;9.30;99.90
19437;DHT22;9854;50.968;4.168;2024-02-26T00:13:13;9.30;99.90
19437;DHT22;9854;50.968;4.168;2024-02-26T00:15:39;9.10;99.90
19437;DHT22;9854;50.968;4.168;2024-02-26T00:18:05;9.10;99.90
19437;DHT22;9854;50.968;4.168;2024-02-26T00:20:31;9.10;99.90
19437;DHT22;9854;50.968;4.168;2024-02-26T00:22:57;9.20;99.90
19437;DHT22;9854;50.968;4.168;2024-02-26T00:25:22;9.20;99.90
19437;DHT22;9854;50.968;4.168;2024-02-26T00:27:48;9.30;99.90
19437;DHT22;9854;50.968;4.168;2024-02-26T00:30:14;9.30;99.90
19437;DHT22;9854;50.968;4.168;2024-02-26T00:32:39;9.30;99.90
19437;DHT22;9854;50.968;4.168;2024-02-26T00:35:06;9.30;99.90
19437;DHT22;9854;50.968;4.168;2024-02-26T00:37:31;9.20;99.90
19437;DHT22;9854;50.968;4.168;2024-02-26T00:39:57;9.20;99.90
19437;DHT22;9854;50.968;4.168;2024-02-26T00:42:23;9.20;99.90
19437;DHT22;9854;50.968;4.168;2024-02-26T00:44:48;9.20;99.90
19437;DHT22;9854;50.968;4.168;2024-02-26T00:47:16;9.20;99.90
19437;DHT22;9854;50.968;4.168;2024-02-26T00:49:42;9.20;99.90
19437;DHT22;9854;50.968;4.168;2024-02-26T00:52:08;9.20;99.90
19437;DHT22;9854;50.968;4.168;2024-02-26T00:54:36;9.20;99.90
19437;DHT22;9854;50.968;4.168;2024-02-26T00:57:04;9.10;99.90
19437;DHT22;9854;50.968;4.168;2024-02-26T00:59:34;9.10;99.90
19437;DHT22;9854;50.968;4.168;2024-02-26T01:01:59;9.10;99.90
19437;DHT22;9854;50.968;4.168;2024-02-26T01:04:27;9.10;99.90
19437;DHT22;9854;50.968;4.168;2024-02-26T01:06:57;9.10;99.90
19437;DHT22;9854;50.968;4.168;2024-02-26T01:09:23;9.20;99.90
19437;DHT22;9854;50.968;4.168;2024-02-26T01:11:48;9.20;99.90
19437;DHT22;9854;50.968;4.168;2024-02-26T01:14:14;9.20;99.90
19437;DHT22;9854;50.968;4.168;2024-02-26T01:16:40;9.20;99.90
19437;DHT22;9854;50.968;4.168;2024-02-26T01:19:05;9.00;99.90
19437;DHT22;9854;50.968;4.168;2024-02-26T01:21:33;8.90;99.90
19437;DHT22;9854;50.968;4.168;2024-02-26T01:23:59;8.90;99.90
19437;DHT22;9854;50.968;4.168;2024-02-26T01:26:24;8.90;99.90
19437;DHT22;9854;50.968;4.168;2024-02-26T01:28:50;8.80;99.90
19437;DHT22;9854;50.968;4.168;2024-02-26T01:31:16;8.80;99.90
19437;DHT22;9854;50.968;4.168;2024-02-26T01:33:41;8.90;99.90
19437;DHT22;9854;50.968;4.168;2024-02-26T01:36:07;8.90;99.90
19437;DHT22;9854;50.968;4.168;2024-02-26T01:38:35;8.80;99.90
19437;DHT22;9854;50.968;4.168;2024-02-26T01:41:00;8.80;99.90
19437;DHT22;9854;50.968;4.168;2024-02-26T01:43:26;8.70;99.90
19437;DHT22;9854;50.968;4.168;2024-02-26T01:45:52;8.70;99.90
19437;DHT22;9854;50.968;4.168;2024-02-26T01:48:18;8.80;99.90
19437;DHT22;9854;50.968;4.168;2024-02-26T01:50:43;8.80;99.90
19437;DHT22;9854;50.968;4.168;2024-02-26T01:53:09;8.80;99.90
19437;DHT22;9854;50.968;4.168;2024-02-26T01:55:35;8.80;99.90
19437;DHT22;9854;50.968;4.168;2024-02-26T01:58:05;8.90;99.90
19437;DHT22;9854;50.968;4.168;2024-02-26T02:00:30;8.90;99.90
19437;DHT22;9854;50.968;4.168;2024-02-26T02:02:56;9.00;99.90
19437;DHT22;9854;50.968;4.168;2024-02-26T02:05:22;9.00;99.90
19437;DHT22;9854;50.968;4.168;2024-02-26T02:07:51;9.00;99.90
19437;DHT22;9854;50.968;4.168;2024-02-26T02:10:18;9.00;99.90
19437;DHT22;9854;50.968;4.168;2024-02-26T02:12:48;9.00;99.90
19437;DHT22;9854;50.968;4.168;2024-02-26T02:15:14;8.90;99.90
19437;DHT22;9854;50.968;4.168;2024-02-26T02:17:40;8.90;99.90
19437;DHT22;9854;50.968;4.168;2024-02-26T02:20:18;8.90;99.90
19437;DHT22;9854;50.968;4.168;2024-02-26T02:22:47;8.80;99.90
19437;DHT22;9854;50.968;4.168;2024-02-26T02:25:13;8.80;99.90
19437;DHT22;9854;50.968;4.168;2024-02-26T02:27:39;8.80;99.90
19437;DHT22;9854;50.968;4.168;2024-02-26T02:30:06;8.80;99.90
19437;DHT22;9854;50.968;4.168;2024-02-26T02:32:33;8.80;99.90
19437;DHT22;9854;50.968;4.168;2024-02-26T02:34:58;8.70;99.90
19437;DHT22;9854;50.968;4.168;2024-02-26T02:37:24;8.60;99.90
19437;DHT22;9854;50.968;4.168;2024-02-26T02:39:50;8.60;99.90
19437;DHT22;9854;50.968;4.168;2024-02-26T02:42:18;8.60;99.90
19437;DHT22;9854;50.968;4.168;2024-02-26T02:44:46;8.60;99.90
19437;DHT22;9854;50.968;4.168;2024-02-26T02:47:11;8.50;99.90
19437;DHT22;9854;50.968;4.168;2024-02-26T02:49:37;8.50;99.90
19437;DHT22;9854;50.968;4.168;2024-02-26T02:52:05;8.50;99.90
19437;DHT22;9854;50.968;4.168;2024-02-26T02:54:31;8.50;99.90
19437;DHT22;9854;50.968;4.168;2024-02-26T02:56:56;8.60;99.90
19437;DHT22;9854;50.968;4.168;2024-02-26T02:59:25;8.60;99.90
19437;DHT22;9854;50.968;4.168;2024-02-26T03:01:51;8.60;99.90
19437;DHT22;9854;50.968;4.168;2024-02-26T03:04:17;8.50;99.90
19437;DHT22;9854;50.968;4.168;2024-02-26T03:06:43;8.40;99.90
19437;DHT22;9854;50.968;4.168;2024-02-26T03:09:08;8.40;99.90
19437;DHT22;9854;50.968;4.168;2024-02-26T03:11:34;8.30;99.90
19437;DHT22;9854;50.968;4.168;2024-02-26T03:14:00;8.20;99.90
19437;DHT22;9854;50.968;4.168;2024-02-26T03:16:28;8.20;99.90
19437;DHT22;9854;50.968;4.168;2024-02-26T03:18:56;8.20;99.90
19437;DHT22;9854;50.968;4.168;2024-02-26T03:21:25;8.20;99.90
19437;DHT22;9854;50.968;4.168;2024-02-26T03:23:51;8.10;99.90
19437;DHT22;9854;50.968;4.168;2024-02-26T03:26:17;8.20;99.90
19437;DHT22;9854;50.968;4.168;2024-02-26T03:28:42;8.20;99.90
19437;DHT22;9854;50.968;4.168;2024-02-26T03:31:08;8.20;99.90
19437;DHT22;9854;50.968;4.168;2024-02-26T03:33:34;8.20;99.90
19437;DHT22;9854;50.968;4.168;2024-02-26T03:36:00;8.20;99.90
19437;DHT22;9854;50.968;4.168;2024-02-26T03:38:25;8.20;99.90
19437;DHT22;9854;50.968;4.168;2024-02-26T03:40:51;8.10;99.90
19437;DHT22;9854;50.968;4.168;2024-02-26T03:43:17;8.10;99.90
19437;DHT22;9854;50.968;4.168;2024-02-26T03:45:42;8.10;99.90
19437;DHT22;9854;50.968;4.168;2024-02-26T03:48:08;8.10;99.90
19437;DHT22;9854;50.968;4.168;2024-02-26T03:50:34;8.10;99.90
19437;DHT22;9854;50.968;4.168;2024-02-26T03:53:00;8.10;99.90
19437;DHT22;9854;50.968;4.168;2024-02-26T03:55:25;8.10;99.90
19437;DHT22;9854;50.968;4.168;2024-02-26T03:57:52;8.00;99.90
19437;DHT22;9854;50.968;4.168;2024-02-26T04:00:18;8.00;99.90
19437;DHT22;9854;50.968;4.168;2024-02-26T04:02:43;8.00;99.90
19437;DHT22;9854;50.968;4.168;2024-02-26T04:05:10;8.10;99.90
19437;DHT22;9854;50.968;4.168;2024-02-26T04:07:39;8.20;99.90
19437;DHT22;9854;50.968;4.168;2024-02-26T04:10:11;8.20;99.90
19437;DHT22;9854;50.968;4.168;2024-02-26T04:12:42;8.20;99.90
19437;DHT22;9854;50.968;4.168;2024-02-26T04:15:11;8.20;99.90
19437;DHT22;9854;50.968;4.168;2024-02-26T04:17:37;8.20;99.90
19437;DHT22;9854;50.968;4.168;2024-02-26T04:20:04;8.10;99.90
19437;DHT22;9854;50.968;4.168;2024-02-26T04:22:33;8.10;99.90
19437;DHT22;9854;50.968;4.168;2024-02-26T04:24:58;8.10;99.90
19437;DHT22;9854;50.968;4.168;2024-02-26T04:27:24;8.10;99.90
19437;DHT22;9854;50.968;4.168;2024-02-26T04:29:50;8.10;99.90
19437;DHT22;9854;50.968;4.168;2024-02-26T04:32:17;8.20;99.90
19437;DHT22;9854;50.968;4.168;2024-02-26T04:34:45;8.20;99.90
19437;DHT22;9854;50.968;4.168;2024-02-26T04:37:11;8.20;99.90
19437;DHT22;9854;50.968;4.168;2024-02-26T04:39:37;8.20;99.90
19437;DHT22;9854;50.968;4.168;2024-02-26T04:42:02;8.20;99.90
19437;DHT22;9854;50.968;4.168;2024-02-26T04:44:29;8.20;99.90
19437;DHT22;9854;50.968;4.168;2024-02-26T04:46:57;8.30;99.90
19437;DHT22;9854;50.968;4.168;2024-02-26T04:49:26;8.20;99.90
19437;DHT22;9854;50.968;4.168;2024-02-26T04:51:54;8.30;99.90
19437;DHT22;9854;50.968;4.168;2024-02-26T04:54:20;8.20;99.90
19437;DHT22;9854;50.968;4.168;2024-02-26T04:56:45;8.20;99.90
19437;DHT22;9854;50.968;4.168;2024-02-26T04:59:11;8.20;99.90
19437;DHT22;9854;50.968;4.168;2024-02-26T05:01:39;8.20;99.90
19437;DHT22;9854;50.968;4.168;2024-02-26T05:04:05;8.10;99.90
19437;DHT22;9854;50.968;4.168;2024-02-26T05:06:31;8.10;99.90
19437;DHT22;9854;50.968;4.168;2024-02-26T05:09:01;8.10;99.90
19437;DHT22;9854;50.968;4.168;2024-02-26T05:11:27;8.10;99.90
19437;DHT22;9854;50.968;4.168;2024-02-26T05:13:52;8.20;99.90
19437;DHT22;9854;50.968;4.168;2024-02-26T05:16:18;8.30;99.90
19437;DHT22;9854;50.968;4.168;2024-02-26T05:18:45;8.30;99.90
19437;DHT22;9854;50.968;4.168;2024-02-26T05:21:11;8.20;99.90
19437;DHT22;9854;50.968;4.168;2024-02-26T05:23:39;8.30;99.90
19437;DHT22;9854;50.968;4.168;2024-02-26T05:26:05;8.30;99.90
19437;DHT22;9854;50.968;4.168;2024-02-26T05:28:33;8.40;99.90
19437;DHT22;9854;50.968;4.168;2024-02-26T05:31:07;8.30;99.90
19437;DHT22;9854;50.968;4.168;2024-02-26T05:33:35;8.30;99.90
19437;DHT22;9854;50.968;4.168;2024-02-26T05:36:00;8.40;99.90
19437;DHT22;9854;50.968;4.168;2024-02-26T05:38:29;8.30;99.90
19437;DHT22;9854;50.968;4.168;2024-02-26T05:40:57;8.30;99.90
19437;DHT22;9854;50.968;4.168;2024-02-26T05:43:25;8.30;99.90
19437;DHT22;9854;50.968;4.168;2024-02-26T05:45:51;8.20;99.90
19437;DHT22;9854;50.968;4.168;2024-02-26T05:48:17;8.30;99.90
19437;DHT22;9854;50.968;4.168;2024-02-26T05:50:45;8.30;99.90
19437;DHT22;9854;50.968;4.168;2024-02-26T05:53:14;8.30;99.90
19437;DHT22;9854;50.968;4.168;2024-02-26T05:55:39;8.40;99.90
19437;DHT22;9854;50.968;4.168;2024-02-26T05:58:05;8.50;99.90
19437;DHT22;9854;50.968;4.168;2024-02-26T06:00:31;8.50;99.90
19437;DHT22;9854;50.968;4.168;2024-02-26T06:02:57;8.40;99.90
19437;DHT22;9854;50.968;4.168;2024-02-26T06:05:23;8.40;99.90
19437;DHT22;9854;50.968;4.168;2024-02-26T06:07:49;8.40;99.90
19437;DHT22;9854;50.968;4.168;2024-02-26T06:10:16;8.30;99.90
19437;DHT22;9854;50.968;4.168;2024-02-26T06:12:46;8.30;99.90
19437;DHT22;9854;50.968;4.168;2024-02-26T06:15:15;8.30;99.90
19437;DHT22;9854;50.968;4.168;2024-02-26T06:17:40;8.60;99.90
19437;DHT22;9854;50.968;4.168;2024-02-26T06:20:06;8.50;99.90
19437;DHT22;9854;50.968;4.168;2024-02-26T06:22:37;8.50;99.90
19437;DHT22;9854;50.968;4.168;2024-02-26T06:25:05;8.40;99.90
19437;DHT22;9854;50.968;4.168;2024-02-26T06:27:33;8.40;99.90
19437;DHT22;9854;50.968;4.168;2024-02-26T06:29:58;8.40;99.90
19437;DHT22;9854;50.968;4.168;2024-02-26T06:32:26;8.40;99.90
19437;DHT22;9854;50.968;4.168;2024-02-26T06:34:54;8.40;99.90
19437;DHT22;9854;50.968;4.168;2024-02-26T06:37:20;8.50;99.90
19437;DHT22;9854;50.968;4.168;2024-02-26T06:39:45;8.40;99.90
19437;DHT22;9854;50.968;4.168;2024-02-26T06:42:11;8.30;99.90
19437;DHT22;9854;50.968;4.168;2024-02-26T06:44:37;8.30;99.90
19437;DHT22;9854;50.968;4.168;2024-02-26T06:47:03;8.40;99.90
19437;DHT22;9854;50.968;4.168;2024-02-26T06:49:29;8.40;99.90
19437;DHT22;9854;50.968;4.168;2024-02-26T06:51:55;8.30;99.90
19437;DHT22;9854;50.968;4.168;2024-02-26T06:54:20;8.20;99.90
19437;DHT22;9854;50.968;4.168;2024-02-26T06:56:46;8.20;99.90
19437;DHT22;9854;50.968;4.168;2024-02-26T06:59:14;8.20;99.90
19437;DHT22;9854;50.968;4.168;2024-02-26T07:01:41;8.30;99.90
19437;DHT22;9854;50.968;4.168;2024-02-26T07:04:07;8.40;99.90
19437;DHT22;9854;50.968;4.168;2024-02-26T07:06:33;8.30;99.90
19437;DHT22;9854;50.968;4.168;2024-02-26T07:09:00;8.30;99.90
19437;DHT22;9854;50.968;4.168;2024-02-26T07:11:26;8.40;99.90
19437;DHT22;9854;50.968;4.168;2024-02-26T07:13:52;8.40;99.90
19437;DHT22;9854;50.968;4.168;2024-02-26T07:16:17;8.40;99.90
19437;DHT22;9854;50.968;4.168;2024-02-26T07:18:43;8.40;99.90
19437;DHT22;9854;50.968;4.168;2024-02-26T07:21:11;8.30;99.90
19437;DHT22;9854;50.968;4.168;2024-02-26T07:23:37;8.30;99.90
19437;DHT22;9854;50.968;4.168;2024-02-26T07:26:03;8.30;99.90
19437;DHT22;9854;50.968;4.168;2024-02-26T07:28:29;8.20;99.90
19437;DHT22;9854;50.968;4.168;2024-02-26T07:30:55;8.20;99.90
19437;DHT22;9854;50.968;4.168;2024-02-26T07:33:20;8.20;99.90
19437;DHT22;9854;50.968;4.168;2024-02-26T07:35:46;8.20;99.90
19437;DHT22;9854;50.968;4.168;2024-02-26T07:38:12;8.20;99.90
19437;DHT22;9854;50.968;4.168;2024-02-26T07:40:39;8.30;99.90
19437;DHT22;9854;50.968;4.168;2024-02-26T07:43:04;8.20;99.90
19437;DHT22;9854;50.968;4.168;2024-02-26T07:45:32;8.20;99.90
19437;DHT22;9854;50.968;4.168;2024-02-26T07:47:58;8.20;99.90
19437;DHT22;9854;50.968;4.168;2024-02-26T07:50:26;8.20;99.90
19437;DHT22;9854;50.968;4.168;2024-02-26T07:52:52;8.20;99.90
19437;DHT22;9854;50.968;4.168;2024-02-26T07:55:22;8.30;99.90
19437;DHT22;9854;50.968;4.168;2024-02-26T07:57:48;8.30;99.90
19437;DHT22;9854;50.968;4.168;2024-02-26T08:00:16;8.30;99.90
19437;DHT22;9854;50.968;4.168;2024-02-26T08:02:45;8.40;99.90
19437;DHT22;9854;50.968;4.168;2024-02-26T08:05:10;8.40;99.90
19437;DHT22;9854;50.968;4.168;2024-02-26T08:07:38;8.40;99.90
19437;DHT22;9854;50.968;4.168;2024-02-26T08:10:04;8.40;99.90
19437;DHT22;9854;50.968;4.168;2024-02-26T08:12:30;8.40;99.90
19437;DHT22;9854;50.968;4.168;2024-02-26T08:14:55;8.80;99.90
19437;DHT22;9854;50.968;4.168;2024-02-26T08:17:22;8.80;99.90
19437;DHT22;9854;50.968;4.168;2024-02-26T08:19:47;8.80;99.90
19437;DHT22;9854;50.968;4.168;2024-02-26T08:22:17;8.80;99.90
19437;DHT22;9854;50.968;4.168;2024-02-26T08:24:45;8.70;99.90
19437;DHT22;9854;50.968;4.168;2024-02-26T08:27:14;8.80;99.90
19437;DHT22;9854;50.968;4.168;2024-02-26T08:29:41;8.80;99.90
19437;DHT22;9854;50.968;4.168;2024-02-26T08:32:07;8.90;99.90
19437;DHT22;9854;50.968;4.168;2024-02-26T08:34:33;8.90;99.90
19437;DHT22;9854;50.968;4.168;2024-02-26T08:37:01;8.90;99.90
19437;DHT22;9854;50.968;4.168;2024-02-26T08:39:29;8.90;99.90
19437;DHT22;9854;50.968;4.168;2024-02-26T08:41:55;8.80;99.90
19437;DHT22;9854;50.968;4.168;2024-02-26T08:44:20;8.90;99.90
19437;DHT22;9854;50.968;4.168;2024-02-26T08:46:46;8.90;99.90
19437;DHT22;9854;50.968;4.168;2024-02-26T08:49:12;9.20;99.90
19437;DHT22;9854;50.968;4.168;2024-02-26T08:51:43;9.30;99.90
19437;DHT22;9854;50.968;4.168;2024-02-26T08:54:10;9.10;99.90
19437;DHT22;9854;50.968;4.168;2024-02-26T08:56:38;9.10;99.90
19437;DHT22;9854;50.968;4.168;2024-02-26T08:59:04;8.90;99.90
19437;DHT22;9854;50.968;4.168;2024-02-26T09:01:31;8.80;99.90
19437;DHT22;9854;50.968;4.168;2024-02-26T09:03:57;8.70;99.90
19437;DHT22;9854;50.968;4.168;2024-02-26T09:06:22;8.80;99.90
19437;DHT22;9854;50.968;4.168;2024-02-26T09:08:48;8.80;99.90
19437;DHT22;9854;50.968;4.168;2024-02-26T09:11:14;8.70;99.90
19437;DHT22;9854;50.968;4.168;2024-02-26T09:13:39;8.70;99.90
19437;DHT22;9854;50.968;4.168;2024-02-26T09:16:06;8.90;99.90
19437;DHT22;9854;50.968;4.168;2024-02-26T09:18:31;8.80;99.90
19437;DHT22;9854;50.968;4.168;2024-02-26T09:20:57;8.80;99.90
19437;DHT22;9854;50.968;4.168;2024-02-26T09:23:23;8.80;99.90
19437;DHT22;9854;50.968;4.168;2024-02-26T09:25:50;8.60;99.90
19437;DHT22;9854;50.968;4.168;2024-02-26T09:28:15;8.60;99.90
19437;DHT22;9854;50.968;4.168;2024-02-26T09:30:45;8.60;99.90
19437;DHT22;9854;50.968;4.168;2024-02-26T09:33:10;8.90;99.90
19437;DHT22;9854;50.968;4.168;2024-02-26T09:35:37;8.90;99.90
19437;DHT22;9854;50.968;4.168;2024-02-26T09:38:02;8.80;99.90
19437;DHT22;9854;50.968;4.168;2024-02-26T09:40:31;8.80;99.90
19437;DHT22;9854;50.968;4.168;2024-02-26T09:42:59;8.80;99.90
19437;DHT22;9854;50.968;4.168;2024-02-26T09:45:28;8.70;99.90
19437;DHT22;9854;50.968;4.168;2024-02-26T09:47:55;8.90;99.90
19437;DHT22;9854;50.968;4.168;2024-02-26T09:50:21;8.60;99.90
19437;DHT22;9854;50.968;4.168;2024-02-26T09:52:49;8.70;99.90
19437;DHT22;9854;50.968;4.168;2024-02-26T09:55:15;8.70;99.90
19437;DHT22;9854;50.968;4.168;2024-02-26T09:57:51;8.70;99.90
19437;DHT22;9854;50.968;4.168;2024-02-26T10:00:21;8.90;99.90
19437;DHT22;9854;50.968;4.168;2024-02-26T10:02:47;8.90;99.90
19437;DHT22;9854;50.968;4.168;2024-02-26T10:05:17;8.90;99.90
19437;DHT22;9854;50.968;4.168;2024-02-26T10:07:46;8.80;99.90
19437;DHT22;9854;50.968;4.168;2024-02-26T10:10:15;8.70;99.90
19437;DHT22;9854;50.968;4.168;2024-02-26T10:12:42;8.70;99.90
19437;DHT22;9854;50.968;4.168;2024-02-26T10:15:10;8.80;99.90
19437;DHT22;9854;50.968;4.168;2024-02-26T10:17:36;8.70;99.90
19437;DHT22;9854;50.968;4.168;2024-02-26T10:20:17;8.70;99.90
19437;DHT22;9854;50.968;4.168;2024-02-26T10:22:44;8.80;99.90
19437;DHT22;9854;50.968;4.168;2024-02-26T10:25:12;8.80;99.90
19437;DHT22;9854;50.968;4.168;2024-02-26T10:27:37;8.80;99.90
19437;DHT22;9854;50.968;4.168;2024-02-26T10:30:23;8.80;99.90
19437;DHT22;9854;50.968;4.168;2024-02-26T10:32:51;8.90;99.90
19437;DHT22;9854;50.968;4.168;2024-02-26T10:35:18;8.80;99.90
19437;DHT22;9854;50.968;4.168;2024-02-26T10:37:44;8.90;99.90
19437;DHT22;9854;50.968;4.168;2024-02-26T10:40:10;8.80;99.90
19437;DHT22;9854;50.968;4.168;2024-02-26T10:42:37;8.80;99.90
19437;DHT22;9854;50.968;4.168;2024-02-26T10:45:07;8.80;99.90
19437;DHT22;9854;50.968;4.168;2024-02-26T10:47:37;8.70;99.90
19437;DHT22;9854;50.968;4.168;2024-02-26T10:50:05;8.90;99.90
19437;DHT22;9854;50.968;4.168;2024-02-26T10:52:33;8.80;99.90
19437;DHT22;9854;50.968;4.168;2024-02-26T10:55:05;8.70;99.90
19437;DHT22;9854;50.968;4.168;2024-02-26T10:57:35;8.70;99.90
19437;DHT22;9854;50.968;4.168;2024-02-26T11:00:06;8.60;99.90
19437;DHT22;9854;50.968;4.168;2024-02-26T11:02:33;8.60;99.90
19437;DHT22;9854;50.968;4.168;2024-02-26T11:05:03;8.50;99.90
19437;DHT22;9854;50.968;4.168;2024-02-26T11:07:30;8.40;99.90
19437;DHT22;9854;50.968;4.168;2024-02-26T11:09:56;8.50;99.90
19437;DHT22;9854;50.968;4.168;2024-02-26T11:12:25;8.50;99.90
19437;DHT22;9854;50.968;4.168;2024-02-26T11:14:54;8.50;99.90
19437;DHT22;9854;50.968;4.168;2024-02-26T11:17:22;8.50;99.90
19437;DHT22;9854;50.968;4.168;2024-02-26T11:19:50;8.30;99.90
19437;DHT22;9854;50.968;4.168;2024-02-26T11:22:17;8.30;99.90
19437;DHT22;9854;50.968;4.168;2024-02-26T11:24:43;8.30;99.90
19437;DHT22;9854;50.968;4.168;2024-02-26T11:27:10;8.40;99.90
19437;DHT22;9854;50.968;4.168;2024-02-26T11:29:44;8.20;99.90
19437;DHT22;9854;50.968;4.168;2024-02-26T11:32:12;8.30;99.90
19437;DHT22;9854;50.968;4.168;2024-02-26T11:34:38;8.20;99.90
19437;DHT22;9854;50.968;4.168;2024-02-26T11:37:15;8.20;99.90
19437;DHT22;9854;50.968;4.168;2024-02-26T11:39:42;8.30;99.90
19437;DHT22;9854;50.968;4.168;2024-02-26T11:42:08;8.20;99.90
19437;DHT22;9854;50.968;4.168;2024-02-26T11:44:37;8.30;99.90
19437;DHT22;9854;50.968;4.168;2024-02-26T11:47:12;8.30;99.90
19437;DHT22;9854;50.968;4.168;2024-02-26T11:49:39;8.20;99.90
19437;DHT22;9854;50.968;4.168;2024-02-26T11:52:08;8.10;99.90
19437;DHT22;9854;50.968;4.168;2024-02-26T11:55:02;8.30;99.90
19437;DHT22;9854;50.968;4.168;2024-02-26T11:57:38;8.50;99.90
19437;DHT22;9854;50.968;4.168;2024-02-26T12:02:46;8.40;99.90
19437;DHT22;9854;50.968;4.168;2024-02-26T12:05:20;8.30;99.90
19437;DHT22;9854;50.968;4.168;2024-02-26T12:07:51;8.30;99.90
19437;DHT22;9854;50.968;4.168;2024-02-26T12:10:30;8.30;99.90
19437;DHT22;9854;50.968;4.168;2024-02-26T12:13:00;8.30;99.90
19437;DHT22;9854;50.968;4.168;2024-02-26T12:15:36;8.30;99.90
19437;DHT22;9854;50.968;4.168;2024-02-26T12:18:04;8.20;99.90
19437;DHT22;9854;50.968;4.168;2024-02-26T12:20:31;8.20;99.90
19437;DHT22;9854;50.968;4.168;2024-02-26T12:22:57;8.10;99.90
19437;DHT22;9854;50.968;4.168;2024-02-26T12:25:28;8.10;99.90
19437;DHT22;9854;50.968;4.168;2024-02-26T12:27:57;8.00;99.90
19437;DHT22;9854;50.968;4.168;2024-02-26T12:30:24;8.10;99.90
19437;DHT22;9854;50.968;4.168;2024-02-26T12:32:52;8.30;99.90
19437;DHT22;9854;50.968;4.168;2024-02-26T12:35:18;8.20;99.90
19437;DHT22;9854;50.968;4.168;2024-02-26T12:37:46;8.20;99.90
19437;DHT22;9854;50.968;4.168;2024-02-26T12:40:12;8.20;99.90
19437;DHT22;9854;50.968;4.168;2024-02-26T12:42:38;8.20;99.90
19437;DHT22;9854;50.968;4.168;2024-02-26T12:45:10;8.10;99.90
19437;DHT22;9854;50.968;4.168;2024-02-26T12:47:41;8.10;99.90
19437;DHT22;9854;50.968;4.168;2024-02-26T12:50:08;8.10;99.90
19437;DHT22;9854;50.968;4.168;2024-02-26T12:52:43;8.20;99.90
19437;DHT22;9854;50.968;4.168;2024-02-26T12:55:11;8.20;99.90
19437;DHT22;9854;50.968;4.168;2024-02-26T12:57:39;8.20;99.90
19437;DHT22;9854;50.968;4.168;2024-02-26T13:00:12;8.30;99.90
19437;DHT22;9854;50.968;4.168;2024-02-26T13:02:41;8.40;99.90
19437;DHT22;9854;50.968;4.168;2024-02-26T13:05:10;8.40;99.90
19437;DHT22;9854;50.968;4.168;2024-02-26T13:07:45;8.60;99.90
19437;DHT22;9854;50.968;4.168;2024-02-26T13:10:14;8.60;99.90
19437;DHT22;9854;50.968;4.168;2024-02-26T13:12:47;8.60;99.90
19437;DHT22;9854;50.968;4.168;2024-02-26T13:15:18;8.60;99.90
19437;DHT22;9854;50.968;4.168;2024-02-26T13:17:47;8.60;99.90
19437;DHT22;9854;50.968;4.168;2024-02-26T13:20:24;8.70;99.90
19437;DHT22;9854;50.968;4.168;2024-02-26T13:22:50;8.80;99.90
19437;DHT22;9854;50.968;4.168;2024-02-26T13:25:20;8.80;99.90
19437;DHT22;9854;50.968;4.168;2024-02-26T13:27:46;8.90;99.90
19437;DHT22;9854;50.968;4.168;2024-02-26T13:30:12;9.00;99.90
19437;DHT22;9854;50.968;4.168;2024-02-26T13:32:39;9.00;99.90
19437;DHT22;9854;50.968;4.168;2024-02-26T13:35:12;8.90;99.90
19437;DHT22;9854;50.968;4.168;2024-02-26T13:37:39;8.90;99.90
19437;DHT22;9854;50.968;4.168;2024-02-26T13:40:10;8.90;99.90
19437;DHT22;9854;50.968;4.168;2024-02-26T13:42:37;8.90;99.90
19437;DHT22;9854;50.968;4.168;2024-02-26T13:45:03;8.90;99.90
19437;DHT22;9854;50.968;4.168;2024-02-26T13:47:32;8.80;99.90
19437;DHT22;9854;50.968;4.168;2024-02-26T13:49:58;8.70;99.90
19437;DHT22;9854;50.968;4.168;2024-02-26T13:52:24;8.70;99.90
19437;DHT22;9854;50.968;4.168;2024-02-26T13:54:51;8.70;99.90
19437;DHT22;9854;50.968;4.168;2024-02-26T13:57:17;8.80;99.90
19437;DHT22;9854;50.968;4.168;2024-02-26T13:59:45;8.80;99.90
19437;DHT22;9854;50.968;4.168;2024-02-26T14:02:11;8.80;99.90
19437;DHT22;9854;50.968;4.168;2024-02-26T14:04:37;8.80;99.90
19437;DHT22;9854;50.968;4.168;2024-02-26T14:07:06;8.90;99.90
19437;DHT22;9854;50.968;4.168;2024-02-26T14:09:35;8.80;99.90
19437;DHT22;9854;50.968;4.168;2024-02-26T14:12:01;8.80;99.90
19437;DHT22;9854;50.968;4.168;2024-02-26T14:14:29;8.80;99.90
19437;DHT22;9854;50.968;4.168;2024-02-26T14:17:00;8.70;99.90
19437;DHT22;9854;50.968;4.168;2024-02-26T14:19:26;8.80;99.90
19437;DHT22;9854;50.968;4.168;2024-02-26T14:21:52;8.70;99.90
19437;DHT22;9854;50.968;4.168;2024-02-26T14:24:20;8.70;99.90
19437;DHT22;9854;50.968;4.168;2024-02-26T14:26:48;8.70;99.90
19437;DHT22;9854;50.968;4.168;2024-02-26T14:29:16;8.70;99.90
19437;DHT22;9854;50.968;4.168;2024-02-26T14:31:42;8.80;99.90
19437;DHT22;9854;50.968;4.168;2024-02-26T14:34:10;8.90;99.90
19437;DHT22;9854;50.968;4.168;2024-02-26T14:36:35;8.80;99.90
19437;DHT22;9854;50.968;4.168;2024-02-26T14:39:01;8.70;99.90
19437;DHT22;9854;50.968;4.168;2024-02-26T14:41:27;8.70;99.90
19437;DHT22;9854;50.968;4.168;2024-02-26T14:43:52;8.60;99.90
19437;DHT22;9854;50.968;4.168;2024-02-26T14:46:18;8.60;99.90
19437;DHT22;9854;50.968;4.168;2024-02-26T14:48:44;8.70;99.90
19437;DHT22;9854;50.968;4.168;2024-02-26T14:51:09;8.60;99.90
19437;DHT22;9854;50.968;4.168;2024-02-26T14:53:37;8.60;99.90
19437;DHT22;9854;50.968;4.168;2024-02-26T14:56:06;8.70;99.90
19437;DHT22;9854;50.968;4.168;2024-02-26T14:58:31;8.70;99.90
19437;DHT22;9854;50.968;4.168;2024-02-26T15:00:57;8.70;99.90
19437;DHT22;9854;50.968;4.168;2024-02-26T15:03:22;8.70;99.90
19437;DHT22;9854;50.968;4.168;2024-02-26T15:05:48;8.70;99.90
19437;DHT22;9854;50.968;4.168;2024-02-26T15:08:16;8.70;99.90
19437;DHT22;9854;50.968;4.168;2024-02-26T15:10:44;8.70;99.90
19437;DHT22;9854;50.968;4.168;2024-02-26T15:13:14;8.70;99.90
19437;DHT22;9854;50.968;4.168;2024-02-26T15:15:41;8.60;99.90
19437;DHT22;9854;50.968;4.168;2024-02-26T15:18:07;8.70;99.90
19437;DHT22;9854;50.968;4.168;2024-02-26T15:20:34;8.60;99.90
19437;DHT22;9854;50.968;4.168;2024-02-26T15:22:59;8.50;99.90
19437;DHT22;9854;50.968;4.168;2024-02-26T15:25:27;8.50;99.90
19437;DHT22;9854;50.968;4.168;2024-02-26T15:27:53;8.40;99.90
19437;DHT22;9854;50.968;4.168;2024-02-26T15:30:20;8.40;99.90
19437;DHT22;9854;50.968;4.168;2024-02-26T15:32:49;8.50;99.90
19437;DHT22;9854;50.968;4.168;2024-02-26T15:35:14;8.40;99.90
19437;DHT22;9854;50.968;4.168;2024-02-26T15:37:40;8.30;99.90
19437;DHT22;9854;50.968;4.168;2024-02-26T15:40:08;8.30;99.90
19437;DHT22;9854;50.968;4.168;2024-02-26T15:42:34;8.20;99.90
19437;DHT22;9854;50.968;4.168;2024-02-26T15:44:59;8.10;99.90
19437;DHT22;9854;50.968;4.168;2024-02-26T15:47:25;8.30;99.90
19437;DHT22;9854;50.968;4.168;2024-02-26T15:49:51;8.30;99.90
19437;DHT22;9854;50.968;4.168;2024-02-26T15:52:16;8.40;99.90
19437;DHT22;9854;50.968;4.168;2024-02-26T15:54:42;8.30;99.90
19437;DHT22;9854;50.968;4.168;2024-02-26T15:57:10;8.30;99.90
19437;DHT22;9854;50.968;4.168;2024-02-26T15:59:36;8.30;99.90
19437;DHT22;9854;50.968;4.168;2024-02-26T16:02:02;8.20;99.90
19437;DHT22;9854;50.968;4.168;2024-02-26T16:04:28;8.20;99.90